createdAt,value
2022-08-09T00:02:28.969Z,96432.78
2022-08-09T00:05:03.349Z,96436.63
2022-08-09T00:07:44.440Z,96436.16
2022-08-09T00:10:18.073Z,96437.50
2022-08-09T00:12:52.330Z,96434.59
2022-08-09T00:15:26.435Z,96432.97
2022-08-09T00:18:10.595Z,96433.47
2022-08-09T00:20:42.411Z,96426.25
2022-08-09T00:23:57.320Z,96435.06
2022-08-09T00:26:06.953Z,96437.19
2022-08-09T00:28:34.462Z,96431.03
2022-08-09T00:31:09.194Z,96430.78
2022-08-09T00:33:53.282Z,96428.09
2022-08-09T00:36:21.077Z,96424.34
2022-08-09T00:38:50.701Z,96425.41
2022-08-09T00:44:11.019Z,96432.31
2022-08-09T00:44:14.425Z,96423.13
2022-08-09T00:46:56.327Z,96433.28
2022-08-09T00:49:24.669Z,96428.50
2022-08-09T00:51:56.433Z,96437.22
2022-08-09T00:54:31.280Z,96438.53
2022-08-09T00:57:01.894Z,96437.13
2022-08-09T00:59:41.389Z,96441.47
2022-08-09T01:02:20.207Z,96436.31
2022-08-09T01:05:14.242Z,96442.50
2022-08-09T01:08:01.015Z,96444.34
2022-08-09T01:11:08.650Z,96443.31
2022-08-09T01:14:01.856Z,96439.22
2022-08-09T01:16:35.378Z,96439.00
2022-08-09T01:19:17.008Z,96439.88
2022-08-09T01:22:16.673Z,96443.59
2022-08-09T01:25:19.015Z,96439.03
2022-08-09T01:27:52.746Z,96434.50
2022-08-09T01:30:28.492Z,96439.88
2022-08-09T01:33:03.314Z,96436.69
2022-08-09T01:35:38.319Z,96432.41
2022-08-09T01:38:15.005Z,96425.88
2022-08-09T01:40:52.422Z,96428.56
2022-08-09T01:43:29.897Z,96432.31
2022-08-09T01:45:58.306Z,96431.25
2022-08-09T01:48:29.629Z,96432.91
2022-08-09T01:50:58.658Z,96435.47
2022-08-09T01:53:29.296Z,96430.56
2022-08-09T01:56:11.001Z,96433.25
2022-08-09T01:58:38.808Z,96427.44
2022-08-09T02:01:06.471Z,96429.28
2022-08-09T02:03:36.505Z,96431.63
2022-08-09T02:06:07.020Z,96435.94
2022-08-09T02:08:57.002Z,96441.28
2022-08-09T02:11:41.969Z,96434.56
2022-08-09T02:14:15.968Z,96442.34
2022-08-09T02:17:15.434Z,96431.28
2022-08-09T02:19:43.564Z,96430.94
2022-08-09T02:22:36.134Z,96428.50
2022-08-09T02:25:10.054Z,96427.69
2022-08-09T02:28:00.332Z,96436.19
2022-08-09T02:30:36.889Z,96435.63
2022-08-09T02:33:08.034Z,96435.53
2022-08-09T02:36:01.029Z,96430.31
2022-08-09T02:38:35.665Z,96436.94
2022-08-09T02:41:08.558Z,96443.69
2022-08-09T02:43:53.553Z,96436.72
2022-08-09T02:46:24.685Z,96446.34
2022-08-09T02:48:53.920Z,96443.44
2022-08-09T02:51:26.651Z,96446.72
2022-08-09T02:54:00.405Z,96443.69
2022-08-09T02:56:30.466Z,96440.53
2022-08-09T02:58:57.356Z,96442.41
2022-08-09T03:01:29.638Z,96434.69
2022-08-09T03:04:19.358Z,96437.59
2022-08-09T03:06:49.006Z,96440.19
2022-08-09T03:09:17.653Z,96436.47
2022-08-09T03:12:05.471Z,96438.91
2022-08-09T03:14:32.991Z,96436.47
2022-08-09T03:17:01.542Z,96443.44
2022-08-09T03:19:59.064Z,96443.44
2022-08-09T03:22:25.699Z,96438.09
2022-08-09T03:25:06.578Z,96439.75
2022-08-09T03:27:51.899Z,96442.97
2022-08-09T03:30:29.706Z,96446.72
2022-08-09T03:33:17.992Z,96442.84
2022-08-09T03:36:13.142Z,96435.06
2022-08-09T03:38:35.482Z,96439.06
2022-08-09T03:41:03.999Z,96432.88
2022-08-09T03:43:31.607Z,96439.06
2022-08-09T03:46:04.342Z,96447.88
2022-08-09T03:48:51.820Z,96433.22
2022-08-09T03:51:55.980Z,96437.75
2022-08-09T03:54:11.086Z,96450.31
2022-08-09T03:56:41.336Z,96451.72
2022-08-09T03:59:17.034Z,96453.13
2022-08-09T04:01:48.873Z,96454.63
2022-08-09T04:04:16.559Z,96452.78
2022-08-09T04:06:44.109Z,96449.28
2022-08-09T04:09:47.743Z,96451.13
2022-08-09T04:12:12.199Z,96449.28
2022-08-09T04:15:01.780Z,96444.94
2022-08-09T04:17:30.094Z,96454.63
2022-08-09T04:19:57.934Z,96462.06
2022-08-09T04:22:29.606Z,96463.78
2022-08-09T04:24:58.488Z,96472.28
2022-08-09T04:27:25.679Z,96477.16
2022-08-09T04:29:55.674Z,96471.59
2022-08-09T04:32:22.419Z,96468.91
2022-08-09T04:35:01.360Z,96467.88
2022-08-09T04:37:45.036Z,96472.78
2022-08-09T04:40:29.125Z,96471.72
2022-08-09T04:42:59.906Z,96467.19
2022-08-09T04:45:30.499Z,96468.34
2022-08-09T04:48:03.118Z,96473.47
2022-08-09T04:50:31.682Z,96476.53
2022-08-09T04:53:00.696Z,96477.66
2022-08-09T04:55:27.838Z,96480.44
2022-08-09T04:58:09.644Z,96481.63
2022-08-09T05:00:36.579Z,96476.59
2022-08-09T05:03:30.020Z,96476.38
2022-08-09T05:06:04.466Z,96479.88
2022-08-09T05:08:34.959Z,96467.16
2022-08-09T05:11:02.783Z,96473.09
2022-08-09T05:13:33.095Z,96480.31
2022-08-09T05:16:00.731Z,96488.69
2022-08-09T05:18:37.771Z,96489.84
2022-08-09T05:21:22.868Z,96483.34
2022-08-09T05:24:00.125Z,96485.28
2022-08-09T05:26:37.413Z,96485.88
2022-08-09T05:29:17.074Z,96485.97
2022-08-09T05:31:46.403Z,96481.19
2022-08-09T05:34:16.459Z,96473.81
2022-08-09T05:36:44.275Z,96483.59
2022-08-09T05:39:14.353Z,96485.56
2022-08-09T05:41:55.263Z,96491.00
2022-08-09T05:44:22.065Z,96486.81
2022-08-09T05:46:55.645Z,96499.72
2022-08-09T05:49:33.842Z,96490.88
2022-08-09T05:52:10.087Z,96489.34
2022-08-09T05:54:37.042Z,96487.25
2022-08-09T05:57:07.141Z,96481.06
2022-08-09T05:59:39.524Z,96477.69
2022-08-09T06:02:10.027Z,96481.41
2022-08-09T06:04:36.862Z,96478.22
2022-08-09T06:07:11.546Z,96478.00
2022-08-09T06:09:54.625Z,96481.00
2022-08-09T06:12:28.641Z,96478.66
2022-08-09T06:14:55.295Z,96482.75
2022-08-09T06:17:27.861Z,96490.91
2022-08-09T06:20:07.977Z,96491.56
2022-08-09T06:22:35.319Z,96487.34
2022-08-09T06:25:02.138Z,96498.41
2022-08-09T06:27:42.879Z,96490.09
2022-08-09T06:30:10.742Z,96492.88
2022-08-09T06:32:53.364Z,96499.38
2022-08-09T06:35:56.468Z,96489.00
2022-08-09T06:38:16.329Z,96494.13
2022-08-09T06:40:43.368Z,96493.63
2022-08-09T06:43:10.572Z,96490.69
2022-08-09T06:46:05.537Z,96493.69
2022-08-09T06:48:26.157Z,96493.78
2022-08-09T06:50:59.037Z,96496.00
2022-08-09T06:53:26.571Z,96492.59
2022-08-09T06:55:53.409Z,96493.72
2022-08-09T06:58:40.554Z,96499.97
2022-08-09T07:01:08.040Z,96500.53
2022-08-09T07:03:39.777Z,96501.44
2022-08-09T07:06:19.797Z,96509.31
2022-08-09T07:08:46.710Z,96505.09
2022-08-09T07:11:23.339Z,96508.44
2022-08-09T07:14:05.659Z,96512.22
2022-08-09T07:16:42.347Z,96515.03
2022-08-09T07:19:23.010Z,96516.69
2022-08-09T07:21:57.148Z,96523.41
2022-08-09T07:24:32.484Z,96523.16
2022-08-09T07:27:23.933Z,96528.59
2022-08-09T07:29:57.213Z,96528.41
2022-08-09T07:32:32.932Z,96531.44
2022-08-09T07:35:02.756Z,96530.97
2022-08-09T07:37:44.139Z,96533.16
2022-08-09T07:40:19.128Z,96543.97
2022-08-09T07:43:16.793Z,96537.59
2022-08-09T07:45:43.732Z,96537.09
2022-08-09T07:48:28.393Z,96552.41
2022-08-09T07:51:09.846Z,96554.84
2022-08-09T07:54:05.367Z,96555.16
2022-08-09T07:56:34.267Z,96554.41
2022-08-09T07:59:01.218Z,96562.47
2022-08-09T08:01:33.050Z,96565.97
2022-08-09T08:04:01.744Z,96561.09
2022-08-09T08:06:32.210Z,96565.59
2022-08-09T08:09:04.508Z,96563.97
2022-08-09T08:12:11.352Z,96566.16
2022-08-09T08:14:18.467Z,96567.84
2022-08-09T08:16:57.754Z,96569.50
2022-08-09T08:19:33.847Z,96572.31
2022-08-09T08:22:01.704Z,96566.94
2022-08-09T08:24:35.156Z,96570.19
2022-08-09T08:27:16.531Z,96561.38
2022-08-09T08:29:45.242Z,96568.69
2022-08-09T08:32:24.409Z,96570.97
2022-08-09T08:34:58.868Z,96569.22
2022-08-09T08:37:41.548Z,96562.84
2022-08-09T08:40:14.768Z,96570.97
2022-08-09T08:42:47.349Z,96570.78
2022-08-09T08:45:16.683Z,96567.53
2022-08-09T08:47:45.229Z,96577.66
2022-08-09T08:50:15.650Z,96574.41
2022-08-09T08:52:57.708Z,96573.91
2022-08-09T08:55:26.852Z,96577.78
2022-08-09T08:57:57.126Z,96578.66
2022-08-09T09:00:27.558Z,96573.63
2022-08-09T09:03:08.812Z,96561.78
2022-08-09T09:05:59.907Z,96561.56
2022-08-09T09:08:37.806Z,96561.94
2022-08-09T09:11:08.579Z,96564.09
2022-08-09T09:13:55.848Z,96555.56
2022-08-09T09:16:34.508Z,96559.91
2022-08-09T09:22:03.838Z,96565.97
2022-08-09T09:24:34.901Z,96557.69
2022-08-09T09:27:03.215Z,96563.09
2022-08-09T09:29:46.025Z,96560.63
2022-08-09T09:32:34.686Z,96554.56
2022-08-09T09:35:08.961Z,96559.78
2022-08-09T09:37:40.695Z,96559.59
2022-08-09T09:40:08.657Z,96553.47
2022-08-09T09:42:36.315Z,96569.72
2022-08-09T09:45:08.301Z,96563.31
2022-08-09T09:47:42.120Z,96567.13
2022-08-09T09:50:17.299Z,96568.72
2022-08-09T09:52:56.108Z,96579.44
2022-08-09T09:55:31.334Z,96571.63
2022-08-09T09:58:15.715Z,96575.16
2022-08-09T10:00:54.171Z,96574.66
2022-08-09T10:03:57.565Z,96580.28
2022-08-09T10:06:51.970Z,96579.38
2022-08-09T10:09:23.549Z,96588.25
2022-08-09T10:12:14.455Z,96579.94
2022-08-09T10:14:51.481Z,96577.84
2022-08-09T10:17:50.197Z,96580.03
2022-08-09T10:20:31.804Z,96582.25
2022-08-09T10:23:17.223Z,96577.97
2022-08-09T10:26:06.379Z,96587.75
2022-08-09T10:28:34.642Z,96580.25
2022-08-09T10:34:10.736Z,96579.75
2022-08-09T10:36:36.794Z,96570.88
2022-08-09T10:39:05.977Z,96579.75
2022-08-09T10:41:42.909Z,96587.03
2022-08-09T10:44:10.142Z,96583.50
2022-08-09T10:47:00.838Z,96589.44
2022-08-09T10:49:50.346Z,96582.38
2022-08-09T10:52:29.534Z,96579.72
2022-08-09T10:55:02.592Z,96579.75
2022-08-09T10:57:37.673Z,96581.41
2022-08-09T11:01:11.097Z,96582.72
2022-08-09T11:03:50.329Z,96584.13
2022-08-09T11:06:15.778Z,96589.56
2022-08-09T11:08:47.777Z,96584.72
2022-08-09T11:11:19.014Z,96579.63
2022-08-09T11:13:50.085Z,96576.66
2022-08-09T11:16:36.277Z,96589.56
2022-08-09T11:19:10.151Z,96594.41
2022-08-09T11:21:57.166Z,96585.25
2022-08-09T11:24:57.894Z,96597.09
2022-08-09T11:28:03.535Z,96577.66
2022-08-09T11:30:33.771Z,96574.50
2022-08-09T11:33:19.204Z,96569.91
2022-08-09T11:35:57.226Z,96577.50
2022-08-09T11:38:34.063Z,96572.69
2022-08-09T11:41:18.604Z,96576.19
2022-08-09T11:43:52.788Z,96573.53
2022-08-09T11:46:32.843Z,96571.41
2022-08-09T11:49:05.369Z,96570.81
2022-08-09T11:53:00.492Z,96568.38
2022-08-09T11:55:37.471Z,96556.97
2022-08-09T11:58:14.408Z,96571.31
2022-08-09T12:00:52.852Z,96562.38
2022-08-09T12:03:55.063Z,96558.59
2022-08-09T12:06:13.270Z,96572.09
2022-08-09T12:08:47.277Z,96567.00
2022-08-09T12:11:17.180Z,96572.38
2022-08-09T12:14:07.803Z,96564.28
2022-08-09T12:16:42.877Z,96566.91
2022-08-09T12:19:13.100Z,96561.78
2022-08-09T12:21:48.568Z,96547.50
2022-08-09T12:24:26.281Z,96558.31
2022-08-09T12:29:14.708Z,96550.19
2022-08-09T12:30:01.427Z,96555.31
2022-08-09T12:32:40.788Z,96546.16
2022-08-09T12:35:10.789Z,96552.91
2022-08-09T12:37:50.213Z,96544.81
2022-08-09T12:40:18.960Z,96536.16
2022-08-09T12:42:50.329Z,96545.59
2022-08-09T12:45:33.736Z,96537.81
2022-08-09T12:48:03.140Z,96535.69
2022-08-09T12:50:29.935Z,96535.44
2022-08-09T12:53:17.498Z,96538.13
2022-08-09T12:56:14.985Z,96530.53
2022-08-09T12:58:32.685Z,96527.84
2022-08-09T13:01:05.059Z,96533.50
2022-08-09T13:03:56.896Z,96532.41
2022-08-09T13:06:24.221Z,96524.59
2022-08-09T13:09:06.074Z,96528.09
2022-08-09T13:11:44.111Z,96522.16
2022-08-09T13:14:43.665Z,96527.00
2022-08-09T13:17:01.272Z,96532.69
2022-08-09T13:20:11.303Z,96530.00
2022-08-09T13:22:38.124Z,96535.41
2022-08-09T13:25:11.878Z,96534.91
2022-08-09T13:27:55.416Z,96529.44
2022-08-09T13:30:51.390Z,96534.03
2022-08-09T13:33:16.905Z,96529.13
2022-08-09T13:36:39.107Z,96531.81
2022-08-09T13:38:57.468Z,96533.19
2022-08-09T13:41:58.937Z,96536.19
2022-08-09T13:44:09.395Z,96529.69
2022-08-09T13:47:16.643Z,96531.06
2022-08-09T13:49:33.963Z,96530.78
2022-08-09T13:52:09.205Z,96528.09
2022-08-09T13:54:36.500Z,96524.31
2022-08-09T13:57:35.104Z,96528.41
2022-08-09T13:59:58.201Z,96535.16
2022-08-09T14:02:26.134Z,96536.25
2022-08-09T14:04:59.496Z,96530.84
2022-08-09T14:07:40.888Z,96525.72
2022-08-09T14:10:17.172Z,96528.41
2022-08-09T14:12:44.448Z,96523.28
2022-08-09T14:16:06.968Z,96527.06
2022-08-09T14:18:18.584Z,96527.88
2022-08-09T14:20:46.772Z,96531.66
2022-08-09T14:23:20.051Z,96529.25
2022-08-09T14:25:51.382Z,96533.03
2022-08-09T14:28:18.395Z,96526.84
2022-08-09T14:30:47.539Z,96530.88
2022-08-09T14:33:21.010Z,96528.72
2022-08-09T14:35:52.653Z,96528.16
2022-08-09T14:38:20.001Z,96531.72
2022-08-09T14:41:04.558Z,96531.47
2022-08-09T14:43:46.972Z,96531.69
2022-08-09T14:46:58.976Z,96532.75
2022-08-09T14:49:02.750Z,96534.66
2022-08-09T14:51:30.313Z,96529.53
2022-08-09T14:54:09.528Z,96528.72
2022-08-09T14:56:36.170Z,96528.44
2022-08-09T14:59:23.499Z,96529.53
2022-08-09T15:01:50.528Z,96535.72
2022-08-09T15:04:17.121Z,96526.53
2022-08-09T15:06:49.696Z,96532.72
2022-08-09T15:09:16.853Z,96533.28
2022-08-09T15:12:04.487Z,96535.69
2022-08-09T15:14:33.877Z,96542.72
2022-08-09T15:17:04.819Z,96533.50
2022-08-09T15:19:36.073Z,96535.66
2022-08-09T15:22:03.095Z,96530.53
2022-08-09T15:24:29.821Z,96531.91
2022-08-09T15:26:56.651Z,96521.88
2022-08-09T15:30:55.983Z,96515.16
2022-08-09T15:32:29.389Z,96520.00
2022-08-09T15:34:59.917Z,96523.50
2022-08-09T15:37:57.026Z,96524.84
2022-08-09T15:40:25.351Z,96520.78
2022-08-09T15:42:58.554Z,96517.81
2022-08-09T15:45:29.381Z,96515.66
2022-08-09T15:48:05.147Z,96518.91
2022-08-09T15:50:39.341Z,96523.75
2022-08-09T15:53:18.702Z,96510.81
2022-08-09T15:56:20.960Z,96515.16
2022-08-09T15:58:46.471Z,96512.75
2022-08-09T16:01:13.306Z,96513.03
2022-08-09T16:03:41.654Z,96520.59
2022-08-09T16:06:32.348Z,96516.25
2022-08-09T16:08:59.172Z,96514.09
2022-08-09T16:11:30.866Z,96515.19
2022-08-09T16:14:03.694Z,96520.03
2022-08-09T16:16:36.846Z,96508.69
2022-08-09T16:19:08.745Z,96511.69
2022-08-09T16:21:40.208Z,96509.00
2022-08-09T16:24:19.955Z,96509.03
2022-08-09T16:26:56.755Z,96516.63
2022-08-09T16:29:36.708Z,96508.81
2022-08-09T16:32:17.780Z,96514.22
2022-08-09T16:34:56.626Z,96507.19
2022-08-09T16:37:50.639Z,96504.50
2022-08-09T16:40:13.559Z,96506.41
2022-08-09T16:42:44.858Z,96505.84
2022-08-09T16:45:12.532Z,96505.56
2022-08-09T16:48:39.218Z,96512.03
2022-08-09T16:50:33.966Z,96512.03
2022-08-09T16:53:02.329Z,96503.16
2022-08-09T16:55:44.133Z,96516.38
2022-08-09T16:58:16.955Z,96505.03
2022-08-09T17:00:46.632Z,96505.03
2022-08-09T17:03:22.662Z,96513.13
2022-08-09T17:06:08.307Z,96510.69
2022-08-09T17:08:59.046Z,96509.34
2022-08-09T17:11:41.302Z,96515.81
2022-08-09T17:14:25.326Z,96516.09
2022-08-09T17:16:59.758Z,96513.66
2022-08-09T17:19:28.124Z,96517.38
2022-08-09T17:22:14.489Z,96513.81
2022-08-09T17:24:47.956Z,96522.72
2022-08-09T17:27:21.780Z,96517.31
2022-08-09T17:29:48.468Z,96520.00
2022-08-09T17:32:20.064Z,96519.66
2022-08-09T17:35:04.379Z,96523.41
2022-08-09T17:38:10.213Z,96525.78
2022-08-09T17:40:21.786Z,96525.47
2022-08-09T17:42:59.189Z,96537.25
2022-08-09T17:46:01.953Z,96535.38
2022-08-09T17:48:17.401Z,96546.09
2022-08-09T17:50:48.596Z,96538.22
2022-08-09T17:53:23.321Z,96545.72
2022-08-09T17:55:54.177Z,96545.38
2022-08-09T17:58:21.939Z,96550.91
2022-08-09T18:00:55.022Z,96559.16
2022-08-09T18:03:24.548Z,96561.75
2022-08-09T18:05:53.208Z,96562.25
2022-08-09T18:08:22.184Z,96561.97
2022-08-09T18:11:00.989Z,96569.69
2022-08-09T18:13:40.020Z,96565.31
2022-08-09T18:16:30.264Z,96572.50
2022-08-09T18:18:59.301Z,96575.03
2022-08-09T18:21:31.798Z,96584.28
2022-08-09T18:24:12.368Z,96585.00
2022-08-09T18:26:46.375Z,96584.69
2022-08-09T18:30:38.744Z,96590.72
2022-08-09T18:32:03.895Z,96596.75
2022-08-09T18:34:35.205Z,96597.47
2022-08-09T18:37:10.361Z,96604.00
2022-08-09T18:39:57.884Z,96591.63
2022-08-09T18:42:29.344Z,96590.69
2022-08-09T18:44:56.340Z,96602.91
2022-08-09T18:47:24.316Z,96598.66
2022-08-09T18:49:54.540Z,96599.34
2022-08-09T18:52:34.724Z,96613.13
2022-08-09T18:55:02.766Z,96608.88
2022-08-09T18:57:42.600Z,96610.09
2022-08-09T19:00:11.661Z,96606.69
2022-08-09T19:02:43.521Z,96610.06
2022-08-09T19:05:19.637Z,96613.72
2022-08-09T19:08:04.319Z,96603.16
2022-08-09T19:10:37.871Z,96605.72
2022-08-09T19:13:19.279Z,96597.47
2022-08-09T19:15:51.296Z,96599.31
2022-08-09T19:18:33.268Z,96612.44
2022-08-09T19:21:09.929Z,96603.28
2022-08-09T19:24:33.205Z,96604.31
2022-08-09T19:26:31.141Z,96602.59
2022-08-09T19:29:03.061Z,96611.47
2022-08-09T19:31:45.039Z,96607.44
2022-08-09T19:34:22.319Z,96611.03
2022-08-09T19:36:53.076Z,96610.34
2022-08-09T19:39:29.127Z,96615.03
2022-08-09T19:42:08.419Z,96611.06
2022-08-09T19:44:38.156Z,96617.91
2022-08-09T19:47:07.824Z,96614.44
2022-08-09T19:50:09.569Z,96608.03
2022-08-09T19:52:26.204Z,96611.97
2022-08-09T19:54:52.806Z,96614.88
2022-08-09T19:57:19.550Z,96612.31
2022-08-09T19:59:59.125Z,96616.75
2022-08-09T20:04:12.611Z,96611.69
2022-08-09T20:05:20.550Z,96618.53
2022-08-09T20:08:00.255Z,96621.34
2022-08-09T20:10:34.428Z,96619.34
2022-08-09T20:13:04.970Z,96620.84
2022-08-09T20:16:34.713Z,96616.91
2022-08-09T20:18:19.725Z,96616.78
2022-08-09T20:20:51.086Z,96622.56
2022-08-09T20:23:19.583Z,96629.56
2022-08-09T20:25:52.253Z,96631.03
2022-08-09T20:28:24.505Z,96631.50
2022-08-09T20:30:54.878Z,96635.06
2022-08-09T20:33:21.859Z,96630.75
2022-08-09T20:35:51.612Z,96641.53
2022-08-09T20:38:27.536Z,96636.59
2022-08-09T20:40:56.706Z,96640.88
2022-08-09T20:43:25.354Z,96644.56
2022-08-09T20:45:57.546Z,96639.31
2022-08-09T20:48:31.240Z,96643.94
2022-08-09T20:50:58.914Z,96639.03
2022-08-09T20:53:36.371Z,96642.34
2022-08-09T20:56:08.763Z,96633.69
2022-08-09T20:58:36.070Z,96642.31
2022-08-09T21:01:33.161Z,96636.19
2022-08-09T21:05:48.460Z,96638.25
2022-08-09T21:06:41.515Z,96635.91
2022-08-09T21:09:13.839Z,96636.78
2022-08-09T21:14:30.917Z,96638.72
2022-08-09T21:17:00.049Z,96641.03
2022-08-09T21:20:18.051Z,96636.63
2022-08-09T21:22:35.729Z,96637.53
2022-08-09T21:25:18.562Z,96639.59
2022-08-09T21:27:52.329Z,96644.50
2022-08-09T21:30:20.059Z,96642.25
2022-08-09T21:32:50.450Z,96648.25
2022-08-09T21:35:18.037Z,96647.53
2022-08-09T21:37:59.880Z,96637.09
2022-08-09T21:40:30.616Z,96635.94
2022-08-09T21:43:04.216Z,96644.56
2022-08-09T21:45:32.897Z,96645.25
2022-08-09T21:48:06.991Z,96650.63
2022-08-09T21:50:38.437Z,96646.16
2022-08-09T21:53:15.571Z,96643.75
2022-08-09T21:55:46.873Z,96642.13
2022-08-09T21:58:13.548Z,96641.53
2022-08-09T22:00:40.757Z,96640.53
2022-08-09T22:03:19.370Z,96641.38
2022-08-09T22:05:52.316Z,96632.34
2022-08-09T22:08:19.683Z,96628.28
2022-08-09T22:11:00.839Z,96636.47
2022-08-09T22:13:38.573Z,96634.91
2022-08-09T22:16:10.681Z,96641.06
2022-08-09T22:18:52.204Z,96632.53
2022-08-09T22:21:27.439Z,96638.94
2022-08-09T22:24:16.933Z,96634.81
2022-08-09T22:26:47.804Z,96642.38
2022-08-09T22:29:18.513Z,96643.84
2022-08-09T22:31:57.049Z,96638.34
2022-08-09T22:34:26.448Z,96635.06
2022-08-09T22:36:57.794Z,96639.59
2022-08-09T22:39:57.299Z,96640.47
2022-08-09T22:42:20.815Z,96629.03
2022-08-09T22:44:48.974Z,96629.47
2022-08-09T22:48:33.916Z,96628.25
2022-08-09T22:50:13.524Z,96630.72
2022-08-09T22:52:40.072Z,96626.00
2022-08-09T22:55:08.372Z,96624.78
2022-08-09T22:58:00.120Z,96624.44
2022-08-09T23:00:29.555Z,96621.59
2022-08-09T23:02:56.545Z,96620.59
2022-08-09T23:05:25.150Z,96619.34
2022-08-09T23:08:29.125Z,96616.94
2022-08-09T23:10:56.426Z,96612.81
2022-08-09T23:13:22.995Z,96618.16
2022-08-09T23:16:02.980Z,96618.81
2022-08-09T23:18:30.030Z,96615.34
2022-08-09T23:20:56.634Z,96628.03
2022-08-09T23:23:23.217Z,96626.41
2022-08-09T23:25:49.747Z,96629.91
2022-08-09T23:28:16.368Z,96623.13
2022-08-09T23:30:50.900Z,96621.88
2022-08-09T23:33:19.450Z,96617.59
2022-08-09T23:36:06.618Z,96622.53
2022-08-09T23:38:32.502Z,96628.47
2022-08-09T23:40:59.016Z,96625.41
2022-08-09T23:43:25.548Z,96617.66
2022-08-09T23:45:52.083Z,96619.50
2022-08-09T23:48:19.615Z,96615.59
2022-08-09T23:50:46.231Z,96610.28
2022-08-09T23:53:12.943Z,96614.19
2022-08-09T23:55:46.198Z,96609.88
2022-08-09T23:58:25.997Z,96612.56
